createdAt,value
2023-12-30T00:00:31.506Z,11.80
2023-12-30T00:01:31.542Z,12.65
2023-12-30T00:02:31.514Z,11.80
2023-12-30T00:03:31.644Z,11.67
2023-12-30T00:04:31.679Z,12.00
2023-12-30T00:05:31.671Z,11.93
2023-12-30T00:06:31.723Z,11.02
2023-12-30T00:07:31.798Z,11.56
2023-12-30T00:08:31.786Z,11.83
2023-12-30T00:09:31.841Z,11.76
2023-12-30T00:10:32.036Z,12.10
2023-12-30T00:11:31.989Z,11.41
2023-12-30T00:12:32.004Z,11.41
2023-12-30T00:13:32.138Z,12.08
2023-12-30T00:14:32.200Z,11.92
2023-12-30T00:15:32.127Z,11.04
2023-12-30T00:16:32.217Z,11.17
2023-12-30T00:17:32.277Z,12.23
2023-12-30T00:18:32.321Z,11.91
2023-12-30T00:19:32.347Z,12.29
2023-12-30T00:20:32.387Z,10.37
2023-12-30T00:21:32.430Z,11.51
2023-12-30T00:22:32.521Z,11.73
2023-12-30T00:23:40.445Z,11.11
2023-12-30T00:24:33.528Z,11.28
2023-12-30T00:25:32.625Z,11.32
2023-12-30T00:26:32.580Z,11.54
2023-12-30T00:27:32.642Z,11.07
2023-12-30T00:28:32.561Z,11.61
2023-12-30T00:29:32.531Z,11.94
2023-12-30T00:30:32.556Z,11.95
2023-12-30T00:31:32.598Z,10.94
2023-12-30T00:32:32.575Z,10.94
2023-12-30T00:33:33.245Z,11.03
2023-12-30T00:34:32.582Z,10.54
2023-12-30T00:35:32.616Z,11.34
2023-12-30T00:36:32.676Z,11.43
2023-12-30T00:37:32.711Z,11.46
2023-12-30T00:38:32.759Z,10.93
2023-12-30T00:39:32.809Z,11.25
2023-12-30T00:40:32.937Z,10.82
2023-12-30T00:41:32.917Z,10.48
2023-12-30T00:42:32.950Z,11.14
2023-12-30T00:43:33.018Z,10.58
2023-12-30T00:44:33.050Z,10.14
2023-12-30T00:45:33.093Z,11.64
2023-12-30T00:46:33.185Z,10.96
2023-12-30T00:47:33.271Z,11.19
2023-12-30T00:48:33.334Z,10.41
2023-12-30T00:49:33.339Z,10.59
2023-12-30T00:50:33.363Z,10.90
2023-12-30T00:51:33.372Z,10.91
2023-12-30T00:52:33.491Z,10.75
2023-12-30T00:53:33.494Z,11.73
2023-12-30T00:54:38.398Z,11.02
2023-12-30T00:55:34.563Z,10.74
2023-12-30T00:56:33.531Z,10.63
2023-12-30T00:57:33.548Z,11.13
2023-12-30T00:58:33.550Z,11.44
2023-12-30T00:59:33.549Z,10.99
2023-12-30T01:00:33.536Z,10.84
2023-12-30T01:01:33.561Z,11.23
2023-12-30T01:02:33.565Z,10.41
2023-12-30T01:03:33.539Z,10.27
2023-12-30T01:04:33.594Z,10.42
2023-12-30T01:05:33.570Z,10.48
2023-12-30T01:06:33.616Z,10.68
2023-12-30T01:07:33.762Z,10.50
2023-12-30T01:08:33.726Z,9.91
2023-12-30T01:09:33.753Z,10.79
2023-12-30T01:10:33.859Z,10.68
2023-12-30T01:11:33.889Z,10.66
2023-12-30T01:12:33.905Z,9.77
2023-12-30T01:13:34.132Z,9.71
2023-12-30T01:14:34.002Z,11.33
2023-12-30T01:15:34.112Z,10.59
2023-12-30T01:16:34.193Z,9.97
2023-12-30T01:17:34.216Z,10.75
2023-12-30T01:18:34.390Z,10.30
2023-12-30T01:19:34.240Z,10.38
2023-12-30T01:20:34.246Z,9.66
2023-12-30T01:21:34.235Z,10.21
2023-12-30T01:22:34.331Z,10.37
2023-12-30T01:23:34.355Z,11.52
2023-12-30T01:24:34.393Z,10.41
2023-12-30T01:25:34.481Z,10.51
2023-12-30T01:26:34.489Z,11.34
2023-12-30T01:27:34.560Z,10.38
2023-12-30T01:28:34.610Z,10.99
2023-12-30T01:29:34.664Z,9.57
2023-12-30T01:30:34.756Z,10.43
2023-12-30T01:31:34.809Z,10.18
2023-12-30T01:32:34.802Z,10.14
2023-12-30T01:33:34.916Z,10.60
2023-12-30T01:34:35.018Z,10.02
2023-12-30T01:35:34.909Z,11.48
2023-12-30T01:36:34.972Z,10.22
2023-12-30T01:37:35.096Z,9.99
2023-12-30T01:38:35.078Z,10.99
2023-12-30T01:39:35.144Z,11.01
2023-12-30T01:40:35.268Z,10.67
2023-12-30T01:41:35.223Z,10.31
2023-12-30T01:42:35.270Z,10.76
2023-12-30T01:43:36.398Z,10.56
2023-12-30T01:44:35.349Z,10.59
2023-12-30T01:45:35.346Z,10.14
2023-12-30T01:46:35.329Z,10.63
2023-12-30T01:47:35.400Z,10.10
2023-12-30T01:48:35.438Z,10.64
2023-12-30T01:49:35.342Z,10.77
2023-12-30T01:50:35.340Z,10.40
2023-12-30T01:51:35.378Z,10.39
2023-12-30T01:52:35.370Z,9.72
2023-12-30T01:53:35.409Z,10.45
2023-12-30T01:54:35.360Z,10.71
2023-12-30T01:55:35.341Z,10.48
2023-12-30T01:56:35.381Z,9.85
2023-12-30T01:57:35.357Z,8.87
2023-12-30T01:58:35.457Z,9.85
2023-12-30T01:59:35.419Z,10.36
2023-12-30T02:00:35.353Z,9.96
2023-12-30T02:01:35.571Z,9.77
2023-12-30T02:02:35.373Z,10.00
2023-12-30T02:03:35.394Z,9.85
2023-12-30T02:04:35.422Z,10.54
2023-12-30T02:05:35.490Z,10.60
2023-12-30T02:06:35.393Z,10.02
2023-12-30T02:07:35.452Z,10.32
2023-12-30T02:08:35.376Z,8.92
2023-12-30T02:09:35.357Z,10.33
2023-12-30T02:10:35.410Z,10.11
2023-12-30T02:11:35.372Z,10.05
2023-12-30T02:12:35.346Z,10.05
2023-12-30T02:13:35.484Z,9.63
2023-12-30T02:14:35.341Z,10.54
2023-12-30T02:15:35.369Z,10.12
2023-12-30T02:16:35.404Z,10.11
2023-12-30T02:17:35.447Z,9.95
2023-12-30T02:18:35.516Z,10.24
2023-12-30T02:19:35.429Z,10.26
2023-12-30T02:20:35.388Z,10.61
2023-12-30T02:21:35.478Z,9.42
2023-12-30T02:22:35.557Z,9.87
2023-12-30T02:23:35.386Z,9.86
2023-12-30T02:24:35.354Z,11.29
2023-12-30T02:25:35.512Z,9.59
2023-12-30T02:26:35.387Z,10.80
2023-12-30T02:27:35.386Z,9.61
2023-12-30T02:28:35.391Z,10.05
2023-12-30T02:29:35.361Z,9.59
2023-12-30T02:30:35.380Z,9.97
2023-12-30T02:31:35.446Z,10.04
2023-12-30T02:32:35.446Z,9.23
2023-12-30T02:33:35.479Z,10.47
2023-12-30T02:34:35.609Z,9.88
2023-12-30T02:35:35.550Z,10.51
2023-12-30T02:36:35.576Z,9.94
2023-12-30T02:37:35.701Z,10.64
2023-12-30T02:38:35.612Z,10.79
2023-12-30T02:39:35.627Z,10.75
2023-12-30T02:40:35.736Z,9.68
2023-12-30T02:41:35.696Z,10.76
2023-12-30T02:42:35.699Z,10.78
2023-12-30T02:43:35.799Z,10.20
2023-12-30T02:44:35.750Z,9.48
2023-12-30T02:45:35.770Z,9.93
2023-12-30T02:46:35.912Z,10.08
2023-12-30T02:47:35.851Z,10.20
2023-12-30T02:48:35.869Z,10.03
2023-12-30T02:49:35.949Z,11.06
2023-12-30T02:50:35.974Z,10.76
2023-12-30T02:51:35.973Z,10.12
2023-12-30T02:52:36.137Z,9.63
2023-12-30T02:53:36.105Z,9.78
2023-12-30T02:54:36.138Z,9.84
2023-12-30T02:55:36.202Z,9.59
2023-12-30T02:56:36.270Z,9.71
2023-12-30T02:57:48.245Z,10.35
2023-12-30T02:58:37.314Z,10.31
2023-12-30T02:59:36.332Z,9.48
2023-12-30T03:00:36.367Z,11.38
2023-12-30T03:01:36.440Z,9.29
2023-12-30T03:02:36.356Z,10.78
2023-12-30T03:03:36.338Z,10.77
2023-12-30T03:04:36.419Z,9.69
2023-12-30T03:05:36.393Z,11.16
2023-12-30T03:06:36.327Z,10.11
2023-12-30T03:07:36.339Z,10.17
2023-12-30T03:08:36.390Z,10.50
2023-12-30T03:09:36.471Z,9.93
2023-12-30T03:10:36.748Z,10.57
2023-12-30T03:11:36.560Z,10.21
2023-12-30T03:12:36.562Z,10.06
2023-12-30T03:13:36.695Z,10.17
2023-12-30T03:14:36.686Z,10.30
2023-12-30T03:15:36.715Z,9.72
2023-12-30T03:16:36.836Z,10.24
2023-12-30T03:17:36.960Z,10.60
2023-12-30T03:18:36.946Z,10.40
2023-12-30T03:19:37.057Z,10.16
2023-12-30T03:20:37.018Z,11.28
2023-12-30T03:21:37.097Z,9.99
2023-12-30T03:22:37.197Z,10.78
2023-12-30T03:23:37.221Z,10.25
2023-12-30T03:24:37.295Z,9.90
2023-12-30T03:25:37.384Z,9.78
2023-12-30T03:26:37.400Z,10.04
2023-12-30T03:27:37.463Z,9.24
2023-12-30T03:28:37.549Z,9.77
2023-12-30T03:29:37.523Z,10.26
2023-12-30T03:30:37.624Z,9.49
2023-12-30T03:31:37.711Z,10.45
2023-12-30T03:32:37.838Z,10.21
2023-12-30T03:33:37.830Z,9.69
2023-12-30T03:34:37.885Z,9.89
2023-12-30T03:35:37.873Z,8.91
2023-12-30T03:36:37.935Z,10.51
2023-12-30T03:37:38.008Z,10.96
2023-12-30T03:38:38.042Z,9.51
2023-12-30T03:39:38.109Z,9.38
2023-12-30T03:40:38.208Z,10.01
2023-12-30T03:41:38.209Z,10.20
2023-12-30T03:42:38.278Z,10.19
2023-12-30T03:43:38.375Z,9.48
2023-12-30T03:44:38.361Z,9.84
2023-12-30T03:45:38.460Z,10.11
2023-12-30T03:46:38.511Z,10.10
2023-12-30T03:47:38.580Z,10.00
2023-12-30T03:48:38.811Z,9.80
2023-12-30T03:49:38.816Z,9.74
2023-12-30T03:50:38.716Z,9.77
2023-12-30T03:51:38.778Z,10.11
2023-12-30T03:52:38.944Z,10.93
2023-12-30T03:53:38.890Z,10.47
2023-12-30T03:54:38.930Z,10.18
2023-12-30T03:55:39.113Z,10.46
2023-12-30T03:56:39.038Z,10.27
2023-12-30T03:57:39.248Z,10.58
2023-12-30T03:58:39.171Z,10.18
2023-12-30T03:59:39.224Z,10.23
2023-12-30T04:00:39.262Z,10.34
2023-12-30T04:01:39.356Z,9.49
2023-12-30T04:02:39.390Z,9.89
2023-12-30T04:03:39.444Z,9.49
2023-12-30T04:04:39.506Z,10.06
2023-12-30T04:05:39.573Z,10.61
2023-12-30T04:06:39.728Z,10.09
2023-12-30T04:07:39.690Z,10.26
2023-12-30T04:08:39.726Z,9.96
2023-12-30T04:09:39.746Z,10.02
2023-12-30T04:10:39.938Z,9.22
2023-12-30T04:11:39.969Z,9.90
2023-12-30T04:12:39.964Z,10.43
2023-12-30T04:13:40.059Z,10.15
2023-12-30T04:14:40.052Z,10.77
2023-12-30T04:15:40.101Z,10.10
2023-12-30T04:16:40.239Z,8.98
2023-12-30T04:17:40.280Z,9.26
2023-12-30T04:18:40.316Z,9.34
2023-12-30T04:19:40.401Z,10.11
2023-12-30T04:20:40.398Z,9.49
2023-12-30T04:21:40.496Z,9.97
2023-12-30T04:22:40.508Z,9.93
2023-12-30T04:23:40.614Z,8.83
2023-12-30T04:24:40.645Z,10.49
2023-12-30T04:25:40.878Z,9.94
2023-12-30T04:26:40.735Z,9.77
2023-12-30T04:27:40.834Z,9.54
2023-12-30T04:28:40.906Z,9.43
2023-12-30T04:29:40.983Z,9.47
2023-12-30T04:30:41.061Z,10.15
2023-12-30T04:31:41.055Z,9.88
2023-12-30T04:32:41.156Z,9.48
2023-12-30T04:33:41.256Z,9.13
2023-12-30T04:34:41.279Z,9.15
2023-12-30T04:35:41.314Z,9.67
2023-12-30T04:36:41.362Z,8.67
2023-12-30T04:37:41.404Z,10.16
2023-12-30T04:38:42.987Z,9.67
2023-12-30T04:39:41.521Z,9.50
2023-12-30T04:40:41.621Z,9.10
2023-12-30T04:41:41.619Z,9.57
2023-12-30T04:42:41.718Z,9.83
2023-12-30T04:43:41.760Z,9.17
2023-12-30T04:44:41.821Z,9.43
2023-12-30T04:45:41.912Z,8.40
2023-12-30T04:46:41.938Z,9.09
2023-12-30T04:47:42.174Z,9.30
2023-12-30T04:48:42.087Z,8.91
2023-12-30T04:49:42.218Z,9.76
2023-12-30T04:50:42.143Z,8.68
2023-12-30T04:51:42.206Z,8.70
2023-12-30T04:52:42.300Z,9.84
2023-12-30T04:53:42.380Z,9.25
2023-12-30T04:54:49.783Z,9.09
2023-12-30T04:55:49.668Z,9.61
2023-12-30T04:56:49.759Z,9.61
2023-12-30T04:57:49.745Z,9.29
2023-12-30T04:58:49.675Z,9.29
2023-12-30T04:59:49.701Z,9.19
2023-12-30T05:00:49.875Z,9.55
2023-12-30T05:01:49.719Z,10.09
2023-12-30T05:02:49.737Z,10.00
2023-12-30T05:03:49.743Z,9.28
2023-12-30T05:04:49.703Z,8.97
2023-12-30T05:05:49.752Z,9.34
2023-12-30T05:06:49.755Z,8.96
2023-12-30T05:07:49.727Z,9.54
2023-12-30T05:08:49.717Z,9.60
2023-12-30T05:09:49.745Z,9.24
2023-12-30T05:10:49.754Z,8.66
2023-12-30T05:11:49.780Z,8.78
2023-12-30T05:12:49.940Z,9.42
2023-12-30T05:13:49.970Z,9.33
2023-12-30T05:14:49.968Z,8.79
2023-12-30T05:15:50.085Z,9.01
2023-12-30T05:16:50.074Z,8.71
2023-12-30T05:17:50.172Z,8.88
2023-12-30T05:18:50.398Z,8.13
2023-12-30T05:19:50.274Z,9.17
2023-12-30T05:20:50.321Z,8.75
2023-12-30T05:21:50.345Z,8.55
2023-12-30T05:22:50.395Z,8.43
2023-12-30T05:23:50.422Z,8.51
2023-12-30T05:24:50.551Z,8.09
2023-12-30T05:25:50.605Z,9.43
2023-12-30T05:26:50.647Z,9.26
2023-12-30T05:27:50.710Z,9.40
2023-12-30T05:28:50.709Z,8.36
2023-12-30T05:29:50.723Z,8.80
2023-12-30T05:30:50.975Z,9.33
2023-12-30T05:31:50.955Z,8.98
2023-12-30T05:32:50.917Z,8.34
2023-12-30T05:33:51.071Z,9.06
2023-12-30T05:34:51.128Z,9.23
2023-12-30T05:35:51.048Z,9.10
2023-12-30T05:36:51.107Z,9.14
2023-12-30T05:37:51.162Z,9.23
2023-12-30T05:38:51.212Z,9.31
2023-12-30T05:39:51.283Z,8.79
2023-12-30T05:40:51.326Z,8.83
2023-12-30T05:41:51.406Z,8.46
2023-12-30T05:42:51.448Z,9.60
2023-12-30T05:43:51.495Z,8.31
2023-12-30T05:44:51.530Z,8.68
2023-12-30T05:45:51.635Z,9.35
2023-12-30T05:46:51.658Z,8.28
2023-12-30T05:47:51.837Z,8.59
2023-12-30T05:48:51.877Z,8.37
2023-12-30T05:49:51.888Z,8.91
2023-12-30T05:50:51.848Z,8.88
2023-12-30T05:51:52.003Z,8.18
2023-12-30T05:52:51.943Z,9.21
2023-12-30T05:53:51.995Z,8.80
2023-12-30T05:54:52.127Z,8.56
2023-12-30T05:55:52.179Z,8.51
2023-12-30T05:56:52.230Z,8.85
2023-12-30T05:57:52.322Z,8.57
2023-12-30T05:58:52.299Z,8.73
2023-12-30T05:59:52.419Z,8.88
2023-12-30T06:00:52.467Z,9.02
2023-12-30T06:01:52.548Z,8.95
2023-12-30T06:02:52.531Z,8.30
2023-12-30T06:03:52.778Z,8.86
2023-12-30T06:04:52.764Z,8.90
2023-12-30T06:05:52.815Z,7.95
2023-12-30T06:06:52.797Z,9.16
2023-12-30T06:07:52.900Z,7.77
2023-12-30T06:08:52.879Z,8.79
2023-12-30T06:09:53.044Z,8.07
2023-12-30T06:10:53.029Z,8.54
2023-12-30T06:11:53.058Z,8.34
2023-12-30T06:12:53.125Z,9.38
2023-12-30T06:13:53.228Z,8.94
2023-12-30T06:14:53.259Z,8.98
2023-12-30T06:15:53.364Z,9.11
2023-12-30T06:16:53.377Z,8.91
2023-12-30T06:17:53.483Z,8.35
2023-12-30T06:18:53.540Z,9.04
2023-12-30T06:19:53.558Z,9.16
2023-12-30T06:20:53.590Z,8.74
2023-12-30T06:21:53.647Z,8.35
2023-12-30T06:22:53.703Z,9.19
2023-12-30T06:23:53.734Z,9.67
2023-12-30T06:24:53.838Z,8.41
2023-12-30T06:25:53.863Z,9.20
2023-12-30T06:26:53.951Z,8.38
2023-12-30T06:27:54.080Z,8.39
2023-12-30T06:28:54.107Z,8.40
2023-12-30T06:29:54.107Z,8.70
2023-12-30T06:30:54.247Z,8.87
2023-12-30T06:31:54.299Z,8.99
2023-12-30T06:32:54.374Z,8.00
2023-12-30T06:33:54.433Z,9.30
2023-12-30T06:34:54.437Z,8.67
2023-12-30T06:35:54.425Z,8.28
2023-12-30T06:36:54.524Z,8.92
2023-12-30T06:37:54.587Z,8.92
2023-12-30T06:38:54.841Z,8.89
2023-12-30T06:39:54.860Z,8.27
2023-12-30T06:40:54.774Z,9.05
2023-12-30T06:41:55.937Z,8.70
2023-12-30T06:42:54.938Z,8.52
2023-12-30T06:43:54.970Z,9.59
2023-12-30T06:44:55.010Z,8.44
2023-12-30T06:45:55.100Z,8.85
2023-12-30T06:46:55.244Z,8.58
2023-12-30T06:47:55.223Z,7.93
2023-12-30T06:48:55.414Z,8.42
2023-12-30T06:49:55.350Z,8.61
2023-12-30T06:50:55.396Z,8.62
2023-12-30T06:51:55.476Z,8.69
2023-12-30T06:52:55.859Z,8.45
2023-12-30T06:53:55.548Z,8.97
2023-12-30T06:55:03.031Z,9.40
2023-12-30T06:55:56.650Z,8.85
2023-12-30T06:56:55.617Z,9.32
2023-12-30T06:57:55.656Z,7.99
2023-12-30T06:58:55.622Z,8.61
2023-12-30T06:59:55.643Z,9.20
2023-12-30T07:00:55.643Z,8.78
2023-12-30T07:01:55.708Z,7.97
2023-12-30T07:02:55.684Z,9.02
2023-12-30T07:03:55.717Z,8.52
2023-12-30T07:04:55.734Z,8.03
2023-12-30T07:05:55.849Z,8.84
2023-12-30T07:06:55.896Z,8.34
2023-12-30T07:07:55.947Z,7.92
2023-12-30T07:08:55.982Z,8.73
2023-12-30T07:09:56.173Z,9.42
2023-12-30T07:10:56.117Z,8.12
2023-12-30T07:11:56.214Z,8.62
2023-12-30T07:12:56.279Z,8.41
2023-12-30T07:13:56.303Z,9.19
2023-12-30T07:14:56.377Z,8.93
2023-12-30T07:15:56.428Z,8.84
2023-12-30T07:16:56.456Z,8.61
2023-12-30T07:17:56.571Z,8.67
2023-12-30T07:18:56.741Z,8.03
2023-12-30T07:19:56.665Z,8.40
2023-12-30T07:20:56.660Z,8.73
2023-12-30T07:21:56.737Z,8.60
2023-12-30T07:22:56.823Z,8.05
2023-12-30T07:23:56.871Z,9.14
2023-12-30T07:24:56.897Z,8.29
2023-12-30T07:25:56.955Z,9.17
2023-12-30T07:27:57.101Z,7.92
2023-12-30T07:28:57.152Z,8.28
2023-12-30T07:29:57.230Z,8.81
2023-12-30T07:30:57.295Z,9.30
2023-12-30T07:31:57.295Z,8.26
2023-12-30T07:32:57.445Z,8.42
2023-12-30T07:33:57.558Z,7.74
2023-12-30T07:34:57.579Z,9.10
2023-12-30T07:35:57.513Z,7.78
2023-12-30T07:36:57.616Z,8.19
2023-12-30T07:37:57.605Z,8.66
2023-12-30T07:38:57.677Z,7.93
2023-12-30T07:39:57.722Z,8.51
2023-12-30T07:40:57.744Z,8.50
2023-12-30T07:41:57.832Z,7.71
2023-12-30T07:42:57.900Z,8.64
2023-12-30T07:43:57.935Z,9.01
2023-12-30T07:44:57.979Z,8.35
2023-12-30T07:45:58.179Z,8.35
2023-12-30T07:46:58.082Z,9.16
2023-12-30T07:47:58.156Z,8.97
2023-12-30T07:48:58.233Z,8.98
2023-12-30T07:49:58.265Z,8.08
2023-12-30T07:50:58.292Z,8.93
2023-12-30T07:51:59.015Z,8.14
2023-12-30T07:52:58.412Z,9.16
2023-12-30T07:53:58.463Z,8.29
2023-12-30T07:54:58.598Z,8.85
2023-12-30T07:55:58.575Z,8.62
2023-12-30T07:56:58.650Z,8.86
2023-12-30T07:57:58.717Z,8.63
2023-12-30T07:58:58.723Z,9.09
2023-12-30T07:59:58.835Z,8.27
2023-12-30T08:00:59.029Z,9.34
2023-12-30T08:01:59.035Z,8.85
2023-12-30T08:02:59.088Z,8.75
2023-12-30T08:03:59.200Z,8.25
2023-12-30T08:04:59.128Z,8.51
2023-12-30T08:05:59.196Z,9.43
2023-12-30T08:06:59.186Z,8.63
2023-12-30T08:07:59.217Z,8.93
2023-12-30T08:08:59.275Z,8.79
2023-12-30T08:09:59.325Z,7.96
2023-12-30T08:10:59.389Z,8.68
2023-12-30T08:12:02.825Z,8.88
2023-12-30T08:12:59.515Z,8.05
2023-12-30T08:13:59.495Z,8.60
2023-12-30T08:14:59.492Z,9.33
2023-12-30T08:15:59.493Z,9.39
2023-12-30T08:16:59.446Z,8.68
2023-12-30T08:17:59.558Z,8.28
2023-12-30T08:18:59.501Z,9.28
2023-12-30T08:19:59.451Z,9.39
2023-12-30T08:20:59.461Z,8.23
2023-12-30T08:21:59.466Z,9.12
2023-12-30T08:22:59.706Z,9.71
2023-12-30T08:23:59.486Z,8.85
2023-12-30T08:24:59.518Z,8.99
2023-12-30T08:25:59.466Z,9.32
2023-12-30T08:26:59.494Z,9.35
2023-12-30T08:27:59.559Z,9.34
2023-12-30T08:28:59.485Z,9.55
2023-12-30T08:29:59.490Z,9.32
2023-12-30T08:30:59.574Z,9.28
2023-12-30T08:31:59.461Z,8.77
2023-12-30T08:32:59.708Z,9.13
2023-12-30T08:33:59.580Z,9.50
2023-12-30T08:34:59.567Z,8.84
2023-12-30T08:35:59.467Z,8.85
2023-12-30T08:36:59.477Z,8.47
2023-12-30T08:37:59.486Z,8.95
2023-12-30T08:38:59.581Z,9.37
2023-12-30T08:39:59.541Z,9.09
2023-12-30T08:40:59.489Z,9.42
2023-12-30T08:41:59.505Z,9.52
2023-12-30T08:42:59.589Z,9.42
2023-12-30T08:43:59.469Z,8.75
2023-12-30T08:44:59.485Z,9.63
2023-12-30T08:45:59.543Z,9.13
2023-12-30T08:46:59.563Z,9.50
2023-12-30T08:47:59.590Z,9.41
2023-12-30T08:48:59.603Z,9.34
2023-12-30T08:49:59.677Z,8.86
2023-12-30T08:50:59.570Z,9.79
2023-12-30T08:51:59.621Z,8.79
2023-12-30T08:52:59.867Z,9.66
2023-12-30T08:53:59.704Z,8.83
2023-12-30T08:55:00.461Z,9.34
2023-12-30T08:55:59.738Z,9.29
2023-12-30T08:56:59.771Z,9.17
2023-12-30T08:57:59.814Z,9.80
2023-12-30T08:58:59.820Z,9.03
2023-12-30T08:59:59.845Z,9.45
2023-12-30T09:00:59.880Z,8.71
2023-12-30T09:02:00.015Z,9.85
2023-12-30T09:03:00.029Z,9.00
2023-12-30T09:04:00.022Z,9.04
2023-12-30T09:05:00.033Z,9.02
2023-12-30T09:06:00.020Z,9.32
2023-12-30T09:07:00.026Z,9.37
2023-12-30T09:08:00.004Z,9.00
2023-12-30T09:09:00.062Z,9.50
2023-12-30T09:10:00.113Z,9.10
2023-12-30T09:11:00.074Z,9.64
2023-12-30T09:12:00.090Z,9.21
2023-12-30T09:13:00.332Z,9.60
2023-12-30T09:14:00.109Z,9.42
2023-12-30T09:15:00.196Z,9.06
2023-12-30T09:16:00.213Z,9.67
2023-12-30T09:17:00.216Z,9.22
2023-12-30T09:18:00.474Z,9.58
2023-12-30T09:19:00.359Z,9.21
2023-12-30T09:20:00.348Z,9.83
2023-12-30T09:21:00.194Z,8.45
2023-12-30T09:22:00.297Z,8.90
2023-12-30T09:23:00.527Z,8.89
2023-12-30T09:24:00.270Z,9.54
2023-12-30T09:25:00.377Z,9.11
2023-12-30T09:26:00.352Z,8.86
2023-12-30T09:27:00.286Z,8.86
2023-12-30T09:28:00.353Z,8.62
2023-12-30T09:29:00.304Z,9.01
2023-12-30T09:30:00.363Z,9.46
2023-12-30T09:31:00.515Z,9.44
2023-12-30T09:32:00.382Z,8.89
2023-12-30T09:33:00.616Z,8.80
2023-12-30T09:34:00.534Z,9.06
2023-12-30T09:35:00.601Z,9.34
2023-12-30T09:36:00.468Z,9.54
2023-12-30T09:37:00.592Z,9.60
2023-12-30T09:38:00.520Z,8.87
2023-12-30T09:39:00.557Z,9.56
2023-12-30T09:40:00.754Z,8.93
2023-12-30T09:41:00.646Z,8.84
2023-12-30T09:42:00.717Z,8.94
2023-12-30T09:43:00.946Z,9.08
2023-12-30T09:44:00.763Z,9.04
2023-12-30T09:45:00.843Z,9.54
2023-12-30T09:46:02.313Z,9.51
2023-12-30T09:47:00.957Z,9.07
2023-12-30T09:48:01.170Z,9.33
2023-12-30T09:49:01.113Z,9.28
2023-12-30T09:50:01.172Z,8.42
2023-12-30T09:51:01.231Z,8.71
2023-12-30T09:52:01.310Z,9.01
2023-12-30T09:53:01.517Z,8.53
2023-12-30T09:54:01.512Z,8.67
2023-12-30T09:55:01.524Z,8.85
2023-12-30T09:56:01.566Z,8.63
2023-12-30T09:57:01.696Z,8.48
2023-12-30T09:58:01.746Z,9.59
2023-12-30T09:59:01.794Z,9.41
2023-12-30T10:00:01.872Z,8.43
2023-12-30T10:01:01.996Z,9.51
2023-12-30T10:02:02.073Z,7.96
2023-12-30T10:03:02.501Z,8.81
2023-12-30T10:04:02.121Z,8.80
2023-12-30T10:05:02.421Z,8.18
2023-12-30T10:06:02.303Z,9.10
2023-12-30T10:07:02.934Z,8.20
2023-12-30T10:08:02.420Z,9.00
2023-12-30T10:09:02.503Z,9.11
2023-12-30T10:10:02.528Z,8.12
2023-12-30T10:11:02.556Z,8.77
2023-12-30T10:12:02.607Z,9.00
2023-12-30T10:13:02.965Z,8.35
2023-12-30T10:14:02.800Z,8.13
2023-12-30T10:15:02.794Z,8.52
2023-12-30T10:16:02.905Z,8.01
2023-12-30T10:17:02.894Z,8.54
2023-12-30T10:18:03.216Z,8.48
2023-12-30T10:19:03.078Z,8.59
2023-12-30T10:20:03.082Z,8.43
2023-12-30T10:21:03.053Z,8.20
2023-12-30T10:22:03.155Z,8.17
2023-12-30T10:23:03.442Z,7.98
2023-12-30T10:24:03.204Z,7.64
2023-12-30T10:25:03.332Z,7.75
2023-12-30T10:26:03.359Z,7.30
2023-12-30T10:27:03.379Z,7.62
2023-12-30T10:28:03.480Z,8.46
2023-12-30T10:29:03.497Z,7.94
2023-12-30T10:30:03.572Z,7.39
2023-12-30T10:31:03.754Z,8.47
2023-12-30T10:32:03.642Z,8.62
2023-12-30T10:33:04.284Z,7.47
2023-12-30T10:34:03.811Z,7.64
2023-12-30T10:35:03.890Z,7.86
2023-12-30T10:36:03.915Z,7.04
2023-12-30T10:37:03.955Z,7.61
2023-12-30T10:38:04.083Z,7.59
2023-12-30T10:39:04.052Z,8.09
2023-12-30T10:40:04.185Z,8.12
2023-12-30T10:41:04.165Z,7.10
2023-12-30T10:42:04.208Z,8.22
2023-12-30T10:43:04.539Z,7.62
2023-12-30T10:44:04.309Z,7.82
2023-12-30T10:45:04.392Z,7.73
2023-12-30T10:46:04.607Z,7.20
2023-12-30T10:47:04.482Z,7.43
2023-12-30T10:48:04.518Z,7.21
2023-12-30T10:49:04.756Z,7.09
2023-12-30T10:50:04.763Z,7.32
2023-12-30T10:51:04.689Z,7.30
2023-12-30T10:52:04.738Z,7.04
2023-12-30T10:53:05.016Z,8.35
2023-12-30T10:54:04.941Z,7.41
2023-12-30T10:55:05.001Z,7.06
2023-12-30T10:56:04.976Z,7.13
2023-12-30T10:57:05.012Z,7.52
2023-12-30T10:58:05.061Z,7.26
2023-12-30T10:59:05.122Z,6.83
2023-12-30T11:00:05.176Z,7.07
2023-12-30T11:01:05.333Z,7.18
2023-12-30T11:02:05.362Z,7.78
2023-12-30T11:03:05.571Z,7.10
2023-12-30T11:04:05.445Z,6.74
2023-12-30T11:05:05.534Z,7.35
2023-12-30T11:06:05.566Z,7.09
2023-12-30T11:07:05.578Z,6.48
2023-12-30T11:08:05.608Z,6.94
2023-12-30T11:09:05.682Z,6.38
2023-12-30T11:10:05.740Z,7.13
2023-12-30T11:11:05.777Z,7.22
2023-12-30T11:12:05.842Z,6.84
2023-12-30T11:13:06.251Z,6.91
2023-12-30T11:14:05.910Z,7.50
2023-12-30T11:15:05.992Z,6.88
2023-12-30T11:16:06.086Z,6.68
2023-12-30T11:17:06.083Z,6.73
2023-12-30T11:18:06.261Z,6.50
2023-12-30T11:19:06.244Z,6.15
2023-12-30T11:20:06.259Z,6.07
2023-12-30T11:21:06.317Z,6.80
2023-12-30T11:22:06.381Z,6.72
2023-12-30T11:23:06.533Z,6.84
2023-12-30T11:24:06.418Z,5.94
2023-12-30T11:25:06.485Z,6.59
2023-12-30T11:26:06.531Z,5.88
2023-12-30T11:27:06.593Z,6.84
2023-12-30T11:28:06.663Z,6.84
2023-12-30T11:29:06.685Z,6.15
2023-12-30T11:30:06.761Z,7.22
2023-12-30T11:31:06.844Z,6.24
2023-12-30T11:32:06.810Z,6.48
2023-12-30T11:33:07.176Z,6.38
2023-12-30T11:34:06.952Z,6.41
2023-12-30T11:35:06.959Z,6.37
2023-12-30T11:36:07.125Z,6.06
2023-12-30T11:37:07.111Z,6.68
2023-12-30T11:38:07.122Z,6.56
2023-12-30T11:39:07.198Z,6.61
2023-12-30T11:40:07.302Z,6.45
2023-12-30T11:41:07.294Z,5.45
2023-12-30T11:42:07.433Z,6.03
2023-12-30T11:43:07.828Z,6.66
2023-12-30T11:44:07.452Z,6.65
2023-12-30T11:45:07.437Z,6.22
2023-12-30T11:46:07.515Z,5.68
2023-12-30T11:47:07.514Z,5.67
2023-12-30T11:48:07.631Z,5.62
2023-12-30T11:49:07.742Z,6.44
2023-12-30T11:50:09.179Z,5.68
2023-12-30T11:51:07.667Z,5.89
2023-12-30T11:52:07.700Z,5.99
2023-12-30T11:53:07.654Z,6.38
2023-12-30T11:54:07.667Z,5.43
2023-12-30T11:55:07.735Z,6.06
2023-12-30T11:56:08.570Z,6.27
2023-12-30T11:57:07.673Z,5.64
2023-12-30T11:58:07.695Z,6.06
2023-12-30T11:59:07.662Z,5.45
2023-12-30T12:00:07.678Z,5.62
2023-12-30T12:01:07.756Z,5.10
2023-12-30T12:02:07.773Z,6.36
2023-12-30T12:03:07.764Z,5.89
2023-12-30T12:04:07.775Z,5.30
2023-12-30T12:05:07.727Z,5.77
2023-12-30T12:06:07.694Z,5.48
2023-12-30T12:07:07.732Z,5.88
2023-12-30T12:08:07.698Z,5.20
2023-12-30T12:09:07.680Z,5.58
2023-12-30T12:10:07.697Z,5.64
2023-12-30T12:11:07.712Z,5.71
2023-12-30T12:12:07.769Z,5.75
2023-12-30T12:13:07.847Z,5.91
2023-12-30T12:14:07.946Z,5.68
2023-12-30T12:15:07.851Z,5.83
2023-12-30T12:16:07.991Z,6.44
2023-12-30T12:17:08.033Z,5.38
2023-12-30T12:18:08.161Z,5.36
2023-12-30T12:19:08.212Z,6.09
2023-12-30T12:20:08.121Z,5.07
2023-12-30T12:21:08.164Z,5.35
2023-12-30T12:22:08.219Z,5.42
2023-12-30T12:23:08.293Z,4.96
2023-12-30T12:24:08.312Z,5.43
2023-12-30T12:25:08.385Z,5.38
2023-12-30T12:26:08.409Z,5.47
2023-12-30T12:27:08.429Z,5.02
2023-12-30T12:28:08.593Z,5.69
2023-12-30T12:29:08.546Z,5.23
2023-12-30T12:30:08.672Z,5.05
2023-12-30T12:31:08.802Z,5.34
2023-12-30T12:32:08.714Z,4.97
2023-12-30T12:33:08.811Z,5.17
2023-12-30T12:34:08.867Z,5.02
2023-12-30T12:35:08.931Z,5.12
2023-12-30T12:36:08.897Z,4.79
2023-12-30T12:37:08.982Z,5.11
2023-12-30T12:38:09.013Z,5.06
2023-12-30T12:39:09.289Z,5.52
2023-12-30T12:40:09.142Z,4.99
2023-12-30T12:41:09.140Z,4.51
2023-12-30T12:42:18.508Z,4.78
2023-12-30T12:43:10.274Z,4.76
2023-12-30T12:44:09.225Z,4.97
2023-12-30T12:45:09.223Z,5.17
2023-12-30T12:46:09.345Z,5.53
2023-12-30T12:47:09.223Z,5.04
2023-12-30T12:48:09.328Z,4.79
2023-12-30T12:49:09.382Z,4.64
2023-12-30T12:50:09.209Z,4.67
2023-12-30T12:51:09.261Z,4.65
2023-12-30T12:52:09.240Z,5.44
2023-12-30T12:53:09.239Z,4.92
2023-12-30T12:54:09.412Z,4.44
2023-12-30T12:55:09.343Z,4.84
2023-12-30T12:56:09.339Z,4.88
2023-12-30T12:57:09.413Z,4.90
2023-12-30T12:58:09.442Z,5.09
2023-12-30T12:59:09.472Z,5.11
2023-12-30T13:00:09.515Z,4.54
2023-12-30T13:01:09.724Z,4.81
2023-12-30T13:02:09.666Z,4.62
2023-12-30T13:03:10.274Z,5.04
2023-12-30T13:04:09.859Z,4.96
2023-12-30T13:05:09.843Z,4.81
2023-12-30T13:06:09.964Z,4.83
2023-12-30T13:07:09.942Z,4.57
2023-12-30T13:08:10.001Z,4.59
2023-12-30T13:09:10.049Z,4.65
2023-12-30T13:10:10.143Z,4.29
2023-12-30T13:11:10.162Z,5.06
2023-12-30T13:12:10.226Z,4.44
2023-12-30T13:13:10.293Z,4.72